This is the latest recevied weather packets stored in our database for station/object KD0ISH. If no packets are shown the sender has not sent any weather packets the latest 10 day(s).
| Time | Temp. | Humidity | Pressure | Rain* | Wind** | Luminosity | Snow |
|---|---|---|---|---|---|---|---|
| 1777506904 | 15.56° C | 60% | 1018.5 hPa | 0 mm | - | 35 W/m² | - |
| 1777506601 | 16.11° C | 60% | 1018.7 hPa | 0 mm | - | 42 W/m² | - |
| 1777506296 | 16.11° C | 58% | 1018.5 hPa | 0 mm | - | 53 W/m² | - |
| 1777505992 | 16.11° C | 57% | 1018.6 hPa | 0 mm | - | 63 W/m² | - |
| 1777505688 | 16.11° C | 58% | 1018.6 hPa | 0 mm | - | 52 W/m² | - |
| 1777505386 | 16.11° C | 56% | 1018.6 hPa | 0 mm | - | 102 W/m² | - |
| 1777505082 | 16.67° C | 55% | 1018.5 hPa | 0 mm | - | 124 W/m² | - |
| 1777504779 | 16.67° C | 57% | 1018.4 hPa | 0 mm | - | 130 W/m² | - |
| 1777504476 | 16.67° C | 58% | 1018.4 hPa | 0 mm | - | 164 W/m² | - |
| 1777504172 | 16.67° C | 56% | 1018.5 hPa | 0 mm | - | 174 W/m² | - |
| 1777503868 | 16.67° C | 55% | 1018.4 hPa | 0 mm | - | 186 W/m² | - |
| 1777503564 | 16.67° C | 57% | 1018.3 hPa | 0 mm | - | 174 W/m² | - |
| 1777503261 | 17.22° C | 55% | 1018.2 hPa | 0 mm | - | 207 W/m² | - |
| 1777502957 | 17.22° C | 56% | 1018.4 hPa | 0 mm | - | 227 W/m² | - |
| 1777502655 | 16.67° C | 58% | 1018.3 hPa | 0 mm | - | 215 W/m² | - |
| 1777502351 | 16.67° C | 57% | 1018.4 hPa | 0 mm | - | 255 W/m² | - |
| 1777502048 | 16.67° C | 58% | 1018.3 hPa | 0 mm | - | 267 W/m² | - |
| 1777501745 | 17.22° C | 55% | 1018.6 hPa | 0 mm | - | 278 W/m² | - |
| 1777501443 | 17.22° C | 54% | 1018.5 hPa | 0 mm | - | 284 W/m² | - |
| 1777501139 | 16.67° C | 56% | 1018.4 hPa | 0 mm | - | 289 W/m² | - |
| 1777500838 | 16.67° C | 56% | 1018.6 hPa | 0 mm | - | 335 W/m² | - |
| 1777500535 | 17.22° C | 56% | 1018.2 hPa | 0 mm | - | 288 W/m² | - |
| 1777500231 | 16.67° C | 59% | 1018.3 hPa | 0 mm | - | 340 W/m² | - |
| 1777499928 | 16.67° C | 55% | 1018.4 hPa | 0 mm | - | 368 W/m² | - |
| 1777499624 | 17.22° C | 57% | 1018.3 hPa | 0 mm | - | 317 W/m² | - |
* Rain latest hour (hover to see other rain measurements)
** Current wind speed in m/s (hover to see current wind gust speed)